Time;durP1;ratioP1;P1;durP2;ratioP2;P2;SDS_P1;SDS_P2;PMS_P1;PMS_P2;Temp;Humidity;BMP_temperature;BMP_pressure;BME280_temperature;BME280_humidity;BME280_pressure;Samples;Min_cycle;Max_cycle;Signal;HPM_P1;HPM_P2
2021/07/02 00:00:24;;;;;;;;;;;;;;;;;;2090514;28;45459;-75
2021/07/02 00:01:26;;;;;;;;;;;;;;;;;;2090684;28;45647;-74
2021/07/02 00:02:27;;;;;;;;;;;;;;;;;;2081200;28;44681;-76
2021/07/02 00:03:28;;;;;;;;;;;;;;;;;;2073006;28;45065;-76
2021/07/02 00:04:31;;;;;;;;;;;;;;;;;;2089404;28;45593;-77
2021/07/02 00:05:32;;;;;;;;;;;;;;;;;;2089041;28;46695;-75
2021/07/02 00:06:34;;;;;;;;;;;;;;;;;;2081229;28;45769;-76
2021/07/02 00:07:35;;;;;;;;;;;;;;;;;;2073071;28;45459;-76
2021/07/02 00:08:37;;;;;;;;;;;;;;;;;;2089675;28;45318;-76
2021/07/02 00:09:38;;;;;;;;;;;;;;;;;;2089291;28;45665;-75
2021/07/02 00:10:40;;;;;;;;;;;;;;;;;;2082846;28;45613;-76
2021/07/02 00:11:41;;;;;;;;;;;;;;;;;;2080769;28;44008;-76
2021/07/02 00:12:43;;;;;;;;;;;;;;;;;;2081372;28;44657;-76
2021/07/02 00:13:44;;;;;;;;;;;;;;;;;;2080975;28;45778;-76
2021/07/02 00:14:46;;;;;;;;;;;;;;;;;;2080684;28;45785;-75
2021/07/02 00:15:47;;;;;;;;;;;;;;;;;;2080698;28;44727;-75
2021/07/02 00:16:49;;;;;;;;;;;;;;;;;;2081035;28;45457;-75
2021/07/02 00:17:50;;;;;;;;;;;;;;;;;;2081514;28;45109;-75
2021/07/02 00:18:52;;;;;;;;;;;;;;;;;;2081523;28;44022;-75
2021/07/02 00:19:53;;;;;;;;;;;;;;;;;;2081473;28;44120;-75
2021/07/02 00:20:55;;;;;;;;;;;;;;;;;;2097561;28;38526;-75
2021/07/02 00:21:56;;;;;;;;;;;;;;;;;;2097285;28;46223;-75
2021/07/02 00:22:57;;;;;;;;;;;;;;;;;;2080671;28;46019;-75
2021/07/02 00:23:59;;;;;;;;;;;;;;;;;;2089194;28;46124;-75
2021/07/02 00:25:02;;;;;;;;;;;;;;;;;;2097140;28;44744;-75
2021/07/02 00:26:03;;;;;;;;;;;;;;;;;;2081278;28;45756;-75
2021/07/02 00:27:05;;;;;;;;;;;;;;;;;;2080755;28;46246;-75
2021/07/02 00:28:07;;;;;;;;;;;;;;;;;;2089393;28;45061;-75
2021/07/02 00:29:09;;;;;;;;;;;;;;;;;;2088881;28;45220;-75
2021/07/02 00:30:10;;;;;;;;;;;;;;;;;;2080862;28;44782;-75
2021/07/02 00:31:12;;;;;;;;;;;;;;;;;;2086006;28;46254;-75
2021/07/02 00:32:13;;;;;;;;;;;;;;;;;;2072479;28;45082;-75
2021/07/02 00:33:15;;;;;;;;;;;;;;;;;;2064952;28;43115;-75
2021/07/02 00:34:16;;;;;;;;;;;;;;;;;;2064616;28;45757;-74
2021/07/02 00:35:18;;;;;;;;;;;;;;;;;;2072445;28;44601;-75
2021/07/02 00:36:19;;;;;;;;;;;;;;;;;;2080637;28;47192;-75
2021/07/02 00:37:20;;;;;;;;;;;;;;;;;;2080738;28;45415;-76
2021/07/02 00:38:22;;;;;;;;;;;;;;;;;;2080676;28;46250;-75
2021/07/02 00:39:23;;;;;;;;;;;;;;;;;;2080742;28;47433;-75
2021/07/02 00:40:25;;;;;;;;;;;;;;;;;;2072638;28;46023;-75
2021/07/02 00:41:26;;;;;;;;;;;;;;;;;;2072771;28;45666;-75
2021/07/02 00:42:28;;;;;;;;;;;;;;;;;;2080803;28;47241;-75
2021/07/02 00:43:29;;;;;;;;;;;;;;;;;;2080669;28;46833;-76
2021/07/02 00:44:36;;;;;;;;;;;;;;;;;;2072812;28;45664;-75
2021/07/02 00:45:38;;;;;;;;;;;;;;;;;;2065101;28;45540;-75
2021/07/02 00:46:39;;;;;;;;;;;;;;;;;;2064549;28;45251;-75
2021/07/02 00:47:41;;;;;;;;;;;;;;;;;;2072596;28;44968;-75
2021/07/02 00:48:42;;;;;;;;;;;;;;;;;;2072543;28;45421;-75
2021/07/02 00:49:44;;;;;;;;;;;;;;;;;;2064441;28;45486;-75
2021/07/02 00:50:46;;;;;;;;;;;;;;;;;;2064595;28;44762;-75
2021/07/02 00:51:47;;;;;;;;;;;;;;;;;;2072550;28;46841;-75
2021/07/02 00:52:48;;;;;;;;;;;;;;;;;;2072224;28;44074;-75
2021/07/02 00:53:50;;;;;;;;;;;;;;;;;;2072587;28;45324;-74
2021/07/02 00:54:54;;;;;;;;;;;;;;;;;;2073450;28;44388;-74
2021/07/02 00:55:56;;;;;;;;;;;;;;;;;;2065539;28;45151;-74
2021/07/02 00:56:57;;;;;;;;;;;;;;;;;;2067187;28;44054;-74
2021/07/02 00:57:59;;;;;;;;;;;;;;;;;;2065420;28;45274;-73
2021/07/02 00:59:00;;;;;;;;;;;;;;;;;;2073469;28;45556;-74
2021/07/02 01:00:04;;;;;;;;;;;;;;;;;;2073513;28;45305;-74
2021/07/02 01:01:05;;;;;;;;;;;;;;;;;;2082545;28;43859;-73
2021/07/02 01:02:07;;;;;;;;;;;;;;;;;;2080295;28;46239;-73
2021/07/02 01:03:08;;;;;;;;;;;;;;;;;;2072580;28;47077;-73
2021/07/02 01:04:10;;;;;;;;;;;;;;;;;;2080926;28;46376;-74
2021/07/02 01:05:12;;;;;;;;;;;;;;;;;;2080566;28;43895;-73
2021/07/02 01:06:14;;;;;;;;;;;;;;;;;;2080191;28;45386;-73
2021/07/02 01:07:15;;;;;;;;;;;;;;;;;;2088881;28;47059;-73
2021/07/02 01:08:17;;;;;;;;;;;;;;;;;;2088657;28;46130;-74
2021/07/02 01:09:19;;;;;;;;;;;;;;;;;;2080623;28;46856;-74
2021/07/02 01:10:21;;;;;;;;;;;;;;;;;;2080502;28;46590;-74
2021/07/02 01:11:22;;;;;;;;;;;;;;;;;;2081154;28;45893;-74
2021/07/02 01:12:24;;;;;;;;;;;;;;;;;;2080396;28;45612;-74
2021/07/02 01:13:25;;;;;;;;;;;;;;;;;;2072479;28;45433;-74
2021/07/02 01:14:27;;;;;;;;;;;;;;;;;;2072384;28;46667;-73
2021/07/02 01:15:28;;;;;;;;;;;;;;;;;;2081545;28;45439;-73
2021/07/02 01:16:30;;;;;;;;;;;;;;;;;;2081797;28;44778;-72
2021/07/02 01:17:31;;;;;;;;;;;;;;;;;;2081941;28;46878;-72
2021/07/02 01:18:33;;;;;;;;;;;;;;;;;;2081718;28;43975;-73
2021/07/02 01:19:34;;;;;;;;;;;;;;;;;;2073837;28;46321;-74
2021/07/02 01:20:36;;;;;;;;;;;;;;;;;;2082011;28;45471;-74
2021/07/02 01:21:37;;;;;;;;;;;;;;;;;;2082102;28;45746;-74
2021/07/02 01:22:39;;;;;;;;;;;;;;;;;;2089826;28;45413;-72
2021/07/02 01:23:41;;;;;;;;;;;;;;;;;;2090152;28;44436;-72
2021/07/02 01:24:42;;;;;;;;;;;;;;;;;;2081848;28;45410;-73
2021/07/02 01:25:44;;;;;;;;;;;;;;;;;;2081676;28;46770;-73
2021/07/02 01:26:46;;;;;;;;;;;;;;;;;;2082060;28;37140;-72
2021/07/02 01:27:47;;;;;;;;;;;;;;;;;;2073918;28;47055;-72
2021/07/02 01:28:49;;;;;;;;;;;;;;;;;;2073742;28;47194;-73
2021/07/02 01:29:51;;;;;;;;;;;;;;;;;;2073657;28;47070;-72
2021/07/02 01:30:52;;;;;;;;;;;;;;;;;;2081622;28;45977;-72
2021/07/02 01:31:53;;;;;;;;;;;;;;;;;;2081740;28;45747;-72
2021/07/02 01:32:55;;;;;;;;;;;;;;;;;;2081491;28;45838;-72
2021/07/02 01:33:56;;;;;;;;;;;;;;;;;;2082302;28;45266;-71
2021/07/02 01:34:58;;;;;;;;;;;;;;;;;;2081531;28;46164;-72
2021/07/02 01:36:04;;;;;;;;;;;;;;;;;;2073425;28;45931;-71
2021/07/02 01:37:05;;;;;;;;;;;;;;;;;;2081695;28;46972;-72
2021/07/02 01:38:07;;;;;;;;;;;;;;;;;;2081745;28;45882;-72
2021/07/02 01:39:08;;;;;;;;;;;;;;;;;;2082246;28;46966;-72
2021/07/02 01:40:10;;;;;;;;;;;;;;;;;;2081672;28;47038;-72
2021/07/02 01:41:12;;;;;;;;;;;;;;;;;;2073516;28;46291;-72
2021/07/02 01:42:13;;;;;;;;;;;;;;;;;;2081421;28;47059;-72
2021/07/02 01:43:14;;;;;;;;;;;;;;;;;;2081579;28;46114;-72
2021/07/02 01:44:16;;;;;;;;;;;;;;;;;;2081726;28;45914;-73
2021/07/02 01:45:17;;;;;;;;;;;;;;;;;;2081667;28;46022;-73
2021/07/02 01:46:19;;;;;;;;;;;;;;;;;;2073492;28;44838;-73
2021/07/02 01:47:21;;;;;;;;;;;;;;;;;;2081667;28;46474;-73
2021/07/02 01:48:22;;;;;;;;;;;;;;;;;;2082142;28;45827;-73
2021/07/02 01:49:24;;;;;;;;;;;;;;;;;;2073277;28;46311;-73
2021/07/02 01:50:26;;;;;;;;;;;;;;;;;;2081683;28;45535;-73
2021/07/02 01:51:27;;;;;;;;;;;;;;;;;;2082306;28;45245;-71
2021/07/02 01:52:28;;;;;;;;;;;;;;;;;;2082084;28;43988;-71
2021/07/02 01:53:30;;;;;;;;;;;;;;;;;;2082126;28;44583;-71
2021/07/02 01:54:31;;;;;;;;;;;;;;;;;;2081415;28;46383;-71
2021/07/02 01:55:33;;;;;;;;;;;;;;;;;;2081432;28;45338;-71
2021/07/02 01:56:34;;;;;;;;;;;;;;;;;;2081998;28;45229;-71
2021/07/02 01:57:36;;;;;;;;;;;;;;;;;;2081582;28;45631;-71
2021/07/02 01:58:37;;;;;;;;;;;;;;;;;;2081434;28;46835;-71
2021/07/02 01:59:39;;;;;;;;;;;;;;;;;;2081618;28;45206;-72
2021/07/02 02:00:40;;;;;;;;;;;;;;;;;;2073460;28;46831;-72
2021/07/02 02:01:42;;;;;;;;;;;;;;;;;;2080704;28;46276;-71
2021/07/02 02:02:44;;;;;;;;;;;;;;;;;;2089425;28;45853;-71
2021/07/02 02:03:47;;;;;;;;;;;;;;;;;;2082003;28;45627;-72
2021/07/02 02:04:49;;;;;;;;;;;;;;;;;;2081464;28;45651;-74
2021/07/02 02:05:50;;;;;;;;;;;;;;;;;;2073529;28;45510;-72
2021/07/02 02:06:52;;;;;;;;;;;;;;;;;;2073338;28;46417;-72
2021/07/02 02:07:53;;;;;;;;;;;;;;;;;;2081647;28;44000;-72
2021/07/02 02:08:55;;;;;;;;;;;;;;;;;;2081755;28;44999;-71
2021/07/02 02:09:57;;;;;;;;;;;;;;;;;;2073873;28;45430;-72
2021/07/02 02:10:58;;;;;;;;;;;;;;;;;;2073234;28;44350;-72
2021/07/02 02:12:00;;;;;;;;;;;;;;;;;;2081316;28;46915;-71
2021/07/02 02:13:01;;;;;;;;;;;;;;;;;;2081333;28;46724;-72
2021/07/02 02:14:03;;;;;;;;;;;;;;;;;;2073334;28;46253;-72
2021/07/02 02:15:06;;;;;;;;;;;;;;;;;;2072806;28;46645;-71
2021/07/02 02:16:07;;;;;;;;;;;;;;;;;;2080913;28;43957;-72
2021/07/02 02:17:09;;;;;;;;;;;;;;;;;;2080877;28;46599;-72
2021/07/02 02:18:10;;;;;;;;;;;;;;;;;;2081061;28;45393;-72
2021/07/02 02:19:12;;;;;;;;;;;;;;;;;;2073008;28;45328;-72
2021/07/02 02:20:14;;;;;;;;;;;;;;;;;;2073467;28;44023;-72
2021/07/02 02:21:15;;;;;;;;;;;;;;;;;;2073495;28;46683;-72
2021/07/02 02:22:16;;;;;;;;;;;;;;;;;;2081383;28;45483;-72
2021/07/02 02:23:18;;;;;;;;;;;;;;;;;;2081981;28;46657;-71
2021/07/02 02:24:19;;;;;;;;;;;;;;;;;;2081499;28;45251;-71
2021/07/02 02:25:21;;;;;;;;;;;;;;;;;;2081403;28;45604;-71
2021/07/02 02:26:22;;;;;;;;;;;;;;;;;;2080096;28;45441;-72
2021/07/02 02:27:24;;;;;;;;;;;;;;;;;;2073334;28;46586;-71
2021/07/02 02:28:25;;;;;;;;;;;;;;;;;;2081566;28;45401;-71
2021/07/02 02:29:27;;;;;;;;;;;;;;;;;;2081989;28;45450;-72
2021/07/02 02:30:28;;;;;;;;;;;;;;;;;;2081906;28;46807;-71
2021/07/02 02:31:30;;;;;;;;;;;;;;;;;;2082001;28;45387;-72
2021/07/02 02:32:32;;;;;;;;;;;;;;;;;;2082105;28;39322;-71
2021/07/02 02:33:34;;;;;;;;;;;;;;;;;;2081164;28;47032;-71
2021/07/02 02:34:35;;;;;;;;;;;;;;;;;;2073423;28;45771;-71
2021/07/02 02:35:37;;;;;;;;;;;;;;;;;;2081553;28;43611;-72
2021/07/02 02:36:38;;;;;;;;;;;;;;;;;;2075797;28;47064;-71
2021/07/02 02:37:40;;;;;;;;;;;;;;;;;;2065015;28;47211;-71
2021/07/02 02:38:41;;;;;;;;;;;;;;;;;;2073169;28;46988;-71
2021/07/02 02:39:43;;;;;;;;;;;;;;;;;;2073024;28;45965;-71
2021/07/02 02:40:44;;;;;;;;;;;;;;;;;;2065168;28;44854;-71
2021/07/02 02:41:46;;;;;;;;;;;;;;;;;;2072906;28;47103;-73
2021/07/02 02:42:47;;;;;;;;;;;;;;;;;;2073095;28;45784;-73
2021/07/02 02:43:49;;;;;;;;;;;;;;;;;;2073348;28;46912;-74
2021/07/02 02:44:50;;;;;;;;;;;;;;;;;;2073309;28;45853;-73
2021/07/02 02:45:52;;;;;;;;;;;;;;;;;;2073078;28;45955;-72
2021/07/02 02:46:53;;;;;;;;;;;;;;;;;;2073093;28;47574;-72
2021/07/02 02:47:55;;;;;;;;;;;;;;;;;;2065243;28;45883;-73
2021/07/02 02:48:56;;;;;;;;;;;;;;;;;;2073234;28;44571;-72
2021/07/02 02:49:58;;;;;;;;;;;;;;;;;;2073108;28;45857;-73
2021/07/02 02:50:59;;;;;;;;;;;;;;;;;;2073201;28;47082;-74
2021/07/02 02:52:01;;;;;;;;;;;;;;;;;;2073060;28;44467;-75
2021/07/02 02:53:02;;;;;;;;;;;;;;;;;;2073134;28;44976;-75
2021/07/02 02:54:04;;;;;;;;;;;;;;;;;;2073939;28;47374;-75
2021/07/02 02:55:05;;;;;;;;;;;;;;;;;;2073026;28;47299;-74
2021/07/02 02:56:07;;;;;;;;;;;;;;;;;;2072869;28;45659;-74
2021/07/02 02:57:08;;;;;;;;;;;;;;;;;;2073491;28;43692;-74
2021/07/02 02:58:10;;;;;;;;;;;;;;;;;;2073103;28;45318;-74
2021/07/02 02:59:11;;;;;;;;;;;;;;;;;;2073213;28;44052;-74
2021/07/02 03:00:13;;;;;;;;;;;;;;;;;;2073723;28;46794;-74
2021/07/02 03:01:14;;;;;;;;;;;;;;;;;;2076972;28;46409;-74
2021/07/02 03:02:16;;;;;;;;;;;;;;;;;;2081227;28;43466;-74
2021/07/02 03:03:20;;;;;;;;;;;;;;;;;;2073157;28;46529;-74
2021/07/02 03:04:36;;;;;;;;;;;;;;;;;;2075694;28;46999;-74
2021/07/02 03:05:38;;;;;;;;;;;;;;;;;;2081110;28;46530;-74
2021/07/02 03:06:39;;;;;;;;;;;;;;;;;;2081136;28;45317;-75
2021/07/02 03:07:42;;;;;;;;;;;;;;;;;;2081231;28;45253;-74
2021/07/02 03:08:59;;;;;;;;;;;;;;;;;;2081369;28;46840;-74
2021/07/02 03:10:01;;;;;;;;;;;;;;;;;;2081346;28;46669;-74
2021/07/02 03:11:03;;;;;;;;;;;;;;;;;;2072988;28;45288;-74
2021/07/02 03:12:05;;;;;;;;;;;;;;;;;;2081101;28;45651;-74
2021/07/02 03:13:06;;;;;;;;;;;;;;;;;;2081801;28;46596;-72
2021/07/02 03:14:08;;;;;;;;;;;;;;;;;;2081729;28;45462;-72
2021/07/02 03:15:09;;;;;;;;;;;;;;;;;;2081028;28;45001;-71
2021/07/02 03:16:11;;;;;;;;;;;;;;;;;;2081205;28;44055;-72
2021/07/02 03:17:12;;;;;;;;;;;;;;;;;;2081055;28;45409;-72
2021/07/02 03:18:14;;;;;;;;;;;;;;;;;;2080966;28;46380;-72
2021/07/02 03:19:16;;;;;;;;;;;;;;;;;;2081077;28;46855;-72
2021/07/02 03:20:17;;;;;;;;;;;;;;;;;;2073111;28;46658;-73
2021/07/02 03:21:19;;;;;;;;;;;;;;;;;;2073055;28;46827;-73
2021/07/02 03:22:20;;;;;;;;;;;;;;;;;;2080864;28;45482;-73
2021/07/02 03:23:22;;;;;;;;;;;;;;;;;;2080819;28;45455;-73
2021/07/02 03:24:23;;;;;;;;;;;;;;;;;;2081079;28;46781;-72
2021/07/02 03:25:25;;;;;;;;;;;;;;;;;;2080369;28;46874;-73
2021/07/02 03:26:26;;;;;;;;;;;;;;;;;;2081110;28;45446;-73
2021/07/02 03:27:27;;;;;;;;;;;;;;;;;;2081562;28;46982;-73
2021/07/02 03:28:32;;;;;;;;;;;;;;;;;;2081744;28;45434;-74
2021/07/02 03:29:33;;;;;;;;;;;;;;;;;;2081066;28;46598;-72
2021/07/02 03:30:35;;;;;;;;;;;;;;;;;;2079535;28;45466;-72
2021/07/02 03:31:36;;;;;;;;;;;;;;;;;;2066817;28;46430;-75
2021/07/02 03:32:38;;;;;;;;;;;;;;;;;;2072866;28;45438;-74
2021/07/02 03:33:40;;;;;;;;;;;;;;;;;;2072994;28;45638;-74
2021/07/02 03:34:44;;;;;;;;;;;;;;;;;;2064978;28;46716;-74
2021/07/02 03:35:46;;;;;;;;;;;;;;;;;;2064968;28;46610;-73
2021/07/02 03:36:47;;;;;;;;;;;;;;;;;;2072991;28;47530;-72
2021/07/02 03:37:49;;;;;;;;;;;;;;;;;;2072447;28;45381;-72
2021/07/02 03:38:50;;;;;;;;;;;;;;;;;;2065144;28;40247;-72
2021/07/02 03:39:52;;;;;;;;;;;;;;;;;;2073123;28;45642;-72
2021/07/02 03:40:53;;;;;;;;;;;;;;;;;;2073162;28;44336;-70
2021/07/02 03:41:54;;;;;;;;;;;;;;;;;;2073217;28;44438;-70
2021/07/02 03:42:56;;;;;;;;;;;;;;;;;;2072658;28;45965;-71
2021/07/02 03:43:57;;;;;;;;;;;;;;;;;;2072991;28;44199;-71
2021/07/02 03:44:58;;;;;;;;;;;;;;;;;;2072758;28;46085;-71
2021/07/02 03:46:00;;;;;;;;;;;;;;;;;;2072390;28;46905;-70
2021/07/02 03:47:02;;;;;;;;;;;;;;;;;;2072867;28;45658;-72
2021/07/02 03:48:03;;;;;;;;;;;;;;;;;;2072749;28;45807;-71
2021/07/02 03:49:05;;;;;;;;;;;;;;;;;;2064721;28;45505;-70
2021/07/02 03:50:06;;;;;;;;;;;;;;;;;;2072993;28;47298;-73
2021/07/02 03:51:07;;;;;;;;;;;;;;;;;;2072982;28;45993;-72
2021/07/02 03:52:09;;;;;;;;;;;;;;;;;;2064737;28;43515;-72
2021/07/02 03:53:10;;;;;;;;;;;;;;;;;;2072861;28;45874;-72
2021/07/02 03:54:12;;;;;;;;;;;;;;;;;;2065258;28;43760;-72
2021/07/02 03:55:13;;;;;;;;;;;;;;;;;;2072740;28;47422;-73
2021/07/02 03:56:15;;;;;;;;;;;;;;;;;;2073081;28;44006;-72
2021/07/02 03:57:19;;;;;;;;;;;;;;;;;;2064731;28;43735;-73
2021/07/02 03:58:20;;;;;;;;;;;;;;;;;;2065039;28;46407;-73
2021/07/02 03:59:22;;;;;;;;;;;;;;;;;;2072536;28;45597;-72
2021/07/02 04:00:23;;;;;;;;;;;;;;;;;;2072972;28;47411;-73
2021/07/02 04:01:25;;;;;;;;;;;;;;;;;;2077437;28;46712;-73
2021/07/02 04:02:28;;;;;;;;;;;;;;;;;;2080795;28;45271;-72
2021/07/02 04:03:31;;;;;;;;;;;;;;;;;;2080975;28;45655;-73
2021/07/02 04:04:34;;;;;;;;;;;;;;;;;;2080889;28;45384;-71
2021/07/02 04:05:35;;;;;;;;;;;;;;;;;;2080457;28;45152;-71
2021/07/02 04:06:37;;;;;;;;;;;;;;;;;;2081313;28;46523;-73
2021/07/02 04:07:39;;;;;;;;;;;;;;;;;;2081226;28;44329;-71
2021/07/02 04:08:40;;;;;;;;;;;;;;;;;;2080799;28;45287;-71
2021/07/02 04:09:41;;;;;;;;;;;;;;;;;;2072660;28;45148;-71
2021/07/02 04:10:43;;;;;;;;;;;;;;;;;;2081091;28;42468;-71
2021/07/02 04:11:44;;;;;;;;;;;;;;;;;;2080811;28;45249;-71
2021/07/02 04:12:46;;;;;;;;;;;;;;;;;;2080734;28;46383;-72
2021/07/02 04:13:47;;;;;;;;;;;;;;;;;;2080650;28;45752;-72
2021/07/02 04:14:49;;;;;;;;;;;;;;;;;;2072533;28;45439;-72
2021/07/02 04:15:53;;;;;;;;;;;;;;;;;;2080444;28;46586;-72
2021/07/02 04:16:55;;;;;;;;;;;;;;;;;;2081341;28;44242;-71
2021/07/02 04:17:56;;;;;;;;;;;;;;;;;;2081265;28;45636;-71
2021/07/02 04:18:58;;;;;;;;;;;;;;;;;;2080692;28;42215;-72
2021/07/02 04:20:00;;;;;;;;;;;;;;;;;;2080758;28;45320;-71
2021/07/02 04:21:01;;;;;;;;;;;;;;;;;;2080872;28;42368;-71
2021/07/02 04:22:03;;;;;;;;;;;;;;;;;;2072882;28;46001;-71
2021/07/02 04:23:05;;;;;;;;;;;;;;;;;;2072708;28;45449;-71
2021/07/02 04:24:07;;;;;;;;;;;;;;;;;;2080704;28;44450;-73
2021/07/02 04:25:09;;;;;;;;;;;;;;;;;;2089029;28;44355;-73
2021/07/02 04:26:10;;;;;;;;;;;;;;;;;;2088785;28;42777;-74
2021/07/02 04:27:13;;;;;;;;;;;;;;;;;;2080817;28;44030;-74
2021/07/02 04:28:17;;;;;;;;;;;;;;;;;;2072784;28;45741;-74
2021/07/02 04:29:18;;;;;;;;;;;;;;;;;;2073111;28;44116;-73
2021/07/02 04:30:19;;;;;;;;;;;;;;;;;;2080607;28;45302;-73
2021/07/02 04:31:23;;;;;;;;;;;;;;;;;;2080789;28;46453;-73
2021/07/02 04:32:25;;;;;;;;;;;;;;;;;;2080041;28;46938;-70
2021/07/02 04:33:26;;;;;;;;;;;;;;;;;;2072586;28;45818;-69
2021/07/02 04:34:27;;;;;;;;;;;;;;;;;;2064392;28;46719;-69
2021/07/02 04:35:29;;;;;;;;;;;;;;;;;;2064282;28;46801;-69
2021/07/02 04:36:30;;;;;;;;;;;;;;;;;;2064454;28;46710;-69
2021/07/02 04:37:32;;;;;;;;;;;;;;;;;;2072514;28;46547;-69
2021/07/02 04:38:33;;;;;;;;;;;;;;;;;;2073041;28;46886;-71
2021/07/02 04:39:38;;;;;;;;;;;;;;;;;;2072300;28;46751;-71
2021/07/02 04:40:39;;;;;;;;;;;;;;;;;;2064728;28;45809;-72
2021/07/02 04:41:41;;;;;;;;;;;;;;;;;;2064540;28;45602;-71
2021/07/02 04:42:44;;;;;;;;;;;;;;;;;;2064101;28;45414;-72
2021/07/02 04:43:46;;;;;;;;;;;;;;;;;;2065016;28;45246;-72
2021/07/02 04:44:47;;;;;;;;;;;;;;;;;;2064412;28;38837;-72
2021/07/02 04:45:49;;;;;;;;;;;;;;;;;;2064367;28;47196;-72
2021/07/02 04:46:55;;;;;;;;;;;;;;;;;;2064838;28;46654;-71
2021/07/02 04:47:56;;;;;;;;;;;;;;;;;;2065091;28;44827;-71
2021/07/02 04:48:58;;;;;;;;;;;;;;;;;;2072579;28;45926;-71
2021/07/02 04:50:00;;;;;;;;;;;;;;;;;;2080181;28;45832;-70
2021/07/02 04:51:02;;;;;;;;;;;;;;;;;;2072340;28;47008;-70
2021/07/02 04:52:03;;;;;;;;;;;;;;;;;;2072581;28;46933;-70
2021/07/02 04:53:04;;;;;;;;;;;;;;;;;;2072498;28;47049;-71
2021/07/02 04:54:06;;;;;;;;;;;;;;;;;;2072407;28;44827;-71
2021/07/02 04:55:08;;;;;;;;;;;;;;;;;;2072234;28;46127;-71
2021/07/02 04:56:11;;;;;;;;;;;;;;;;;;2064407;28;45180;-71
2021/07/02 04:57:14;;;;;;;;;;;;;;;;;;2064486;28;47229;-71
2021/07/02 04:58:17;;;;;;;;;;;;;;;;;;2072505;28;44876;-71
2021/07/02 04:59:21;;;;;;;;;;;;;;;;;;2072341;28;45708;-71
2021/07/02 05:00:26;;;;;;;;;;;;;;;;;;2064862;28;45907;-70
2021/07/02 05:01:27;;;;;;;;;;;;;;;;;;2076829;28;44734;-70
2021/07/02 05:02:29;;;;;;;;;;;;;;;;;;2080280;28;45776;-70
2021/07/02 05:03:30;;;;;;;;;;;;;;;;;;2080438;28;46926;-69
2021/07/02 05:04:32;;;;;;;;;;;;;;;;;;2080496;28;43903;-69
2021/07/02 05:05:35;;;;;;;;;;;;;;;;;;2064018;28;47058;-69
2021/07/02 05:06:36;;;;;;;;;;;;;;;;;;2064524;28;47327;-69
2021/07/02 05:07:39;;;;;;;;;;;;;;;;;;2072209;28;45351;-70
2021/07/02 05:08:41;;;;;;;;;;;;;;;;;;2072771;28;46747;-72
2021/07/02 05:09:43;;;;;;;;;;;;;;;;;;2080231;28;45214;-70
2021/07/02 05:10:44;;;;;;;;;;;;;;;;;;2072281;28;45524;-70
2021/07/02 05:11:45;;;;;;;;;;;;;;;;;;2072178;28;43387;-70
2021/07/02 05:12:47;;;;;;;;;;;;;;;;;;2080232;28;46650;-70
2021/07/02 05:13:48;;;;;;;;;;;;;;;;;;2080246;28;46777;-70
2021/07/02 05:14:50;;;;;;;;;;;;;;;;;;2080097;28;46761;-70
2021/07/02 05:15:52;;;;;;;;;;;;;;;;;;2072382;28;45098;-70
2021/07/02 05:16:54;;;;;;;;;;;;;;;;;;2072117;28;46571;-70
2021/07/02 05:17:55;;;;;;;;;;;;;;;;;;2063870;28;43976;-70
2021/07/02 05:18:57;;;;;;;;;;;;;;;;;;2072220;28;46611;-70
2021/07/02 05:19:58;;;;;;;;;;;;;;;;;;2080308;28;45338;-70
2021/07/02 05:21:02;;;;;;;;;;;;;;;;;;2072306;28;45607;-70
2021/07/02 05:22:03;;;;;;;;;;;;;;;;;;2072019;28;46443;-70
2021/07/02 05:23:05;;;;;;;;;;;;;;;;;;2072286;28;46762;-70
2021/07/02 05:24:06;;;;;;;;;;;;;;;;;;2071843;28;46559;-70
2021/07/02 05:25:08;;;;;;;;;;;;;;;;;;2072805;28;46932;-70
2021/07/02 05:26:11;;;;;;;;;;;;;;;;;;2072462;28;44367;-70
2021/07/02 05:27:13;;;;;;;;;;;;;;;;;;2072685;28;46528;-70
2021/07/02 05:28:15;;;;;;;;;;;;;;;;;;2080459;28;44257;-70
2021/07/02 05:29:16;;;;;;;;;;;;;;;;;;2080312;28;46710;-71
2021/07/02 05:30:17;;;;;;;;;;;;;;;;;;2071968;28;46638;-71
2021/07/02 05:31:19;;;;;;;;;;;;;;;;;;2079782;28;46594;-77
2021/07/02 05:32:21;;;;;;;;;;;;;;;;;;2080947;28;44301;-76
2021/07/02 05:33:38;;;;;;;;;;;;;;;;;;2081057;28;45535;-75
2021/07/02 05:34:40;;;;;;;;;;;;;;;;;;2081112;28;46590;-75
2021/07/02 05:35:41;;;;;;;;;;;;;;;;;;2080174;28;45480;-76
2021/07/02 05:36:43;;;;;;;;;;;;;;;;;;2071870;28;45045;-76
2021/07/02 05:37:44;;;;;;;;;;;;;;;;;;2072343;28;45225;-76
2021/07/02 05:38:46;;;;;;;;;;;;;;;;;;2072352;28;46515;-76
2021/07/02 05:39:47;;;;;;;;;;;;;;;;;;2070403;28;46685;-76
2021/07/02 05:40:54;;;;;;;;;;;;;;;;;;2080329;28;44948;-76
2021/07/02 05:41:55;;;;;;;;;;;;;;;;;;2080573;28;45973;-77
2021/07/02 05:42:57;;;;;;;;;;;;;;;;;;2072147;28;45374;-76
2021/07/02 05:43:58;;;;;;;;;;;;;;;;;;2080510;28;46566;-76
2021/07/02 05:45:00;;;;;;;;;;;;;;;;;;2080249;28;47562;-78
2021/07/02 05:46:01;;;;;;;;;;;;;;;;;;2080048;28;46894;-76
2021/07/02 05:47:03;;;;;;;;;;;;;;;;;;2080011;28;46741;-76
2021/07/02 05:48:05;;;;;;;;;;;;;;;;;;2072240;28;46411;-76
2021/07/02 05:49:07;;;;;;;;;;;;;;;;;;2080120;28;45663;-75
2021/07/02 05:50:08;;;;;;;;;;;;;;;;;;2080728;28;45717;-76
2021/07/02 05:51:10;;;;;;;;;;;;;;;;;;2080278;28;39004;-76
2021/07/02 05:52:11;;;;;;;;;;;;;;;;;;2072028;28;47562;-76
2021/07/02 05:53:13;;;;;;;;;;;;;;;;;;2080170;28;44852;-75
2021/07/02 05:54:15;;;;;;;;;;;;;;;;;;2080006;28;44795;-75
2021/07/02 05:55:16;;;;;;;;;;;;;;;;;;2071966;28;45885;-75
2021/07/02 05:56:17;;;;;;;;;;;;;;;;;;2072077;28;45952;-74
2021/07/02 05:57:19;;;;;;;;;;;;;;;;;;2080698;28;46596;-73
2021/07/02 05:58:20;;;;;;;;;;;;;;;;;;2081074;28;44827;-74
2021/07/02 05:59:22;;;;;;;;;;;;;;;;;;2080504;28;44356;-74
2021/07/02 06:00:23;;;;;;;;;;;;;;;;;;2080331;28;47414;-74
2021/07/02 06:01:25;;;;;;;;;;;;;;;;;;2081359;28;47619;-74
2021/07/02 06:02:27;;;;;;;;;;;;;;;;;;2082242;28;45524;-75
2021/07/02 06:03:28;;;;;;;;;;;;;;;;;;2073675;28;46225;-75
2021/07/02 06:04:42;;;;;;;;;;;;;;;;;;2073674;28;45875;-74
2021/07/02 06:05:44;;;;;;;;;;;;;;;;;;2073948;28;45981;-72
2021/07/02 06:06:47;;;;;;;;;;;;;;;;;;2074102;28;47488;-71
2021/07/02 06:07:52;;;;;;;;;;;;;;;;;;2072833;28;45905;-69
2021/07/02 06:08:55;;;;;;;;;;;;;;;;;;2065531;28;47084;-73
2021/07/02 06:09:56;;;;;;;;;;;;;;;;;;2072846;28;44733;-71
2021/07/02 06:11:01;;;;;;;;;;;;;;;;;;2090322;28;45899;-71
2021/07/02 06:12:03;;;;;;;;;;;;;;;;;;2089162;28;46924;-72
2021/07/02 06:13:05;;;;;;;;;;;;;;;;;;2082032;28;44447;-72
2021/07/02 06:14:06;;;;;;;;;;;;;;;;;;2080733;28;43914;-72
2021/07/02 06:15:08;;;;;;;;;;;;;;;;;;2080139;28;43787;-72
2021/07/02 06:16:10;;;;;;;;;;;;;;;;;;2073746;28;43332;-72
2021/07/02 06:17:11;;;;;;;;;;;;;;;;;;2081296;28;45154;-71
2021/07/02 06:18:13;;;;;;;;;;;;;;;;;;2073898;28;45174;-72
2021/07/02 06:19:14;;;;;;;;;;;;;;;;;;2081772;28;46438;-72
2021/07/02 06:20:17;;;;;;;;;;;;;;;;;;2098098;28;46409;-71
2021/07/02 06:21:19;;;;;;;;;;;;;;;;;;2089704;28;45470;-74
2021/07/02 06:22:20;;;;;;;;;;;;;;;;;;2081768;28;46364;-74
2021/07/02 06:23:22;;;;;;;;;;;;;;;;;;2081797;28;45212;-74
2021/07/02 06:24:23;;;;;;;;;;;;;;;;;;2081647;28;45196;-74
2021/07/02 06:25:25;;;;;;;;;;;;;;;;;;2082005;28;43617;-74
2021/07/02 06:26:26;;;;;;;;;;;;;;;;;;2081492;28;47946;-74
2021/07/02 06:27:28;;;;;;;;;;;;;;;;;;2078564;28;46841;-74
2021/07/02 06:28:29;;;;;;;;;;;;;;;;;;2081660;28;45318;-74
2021/07/02 06:29:31;;;;;;;;;;;;;;;;;;2081571;28;46556;-74
2021/07/02 06:30:32;;;;;;;;;;;;;;;;;;2073502;28;46793;-74
2021/07/02 06:31:34;;;;;;;;;;;;;;;;;;2080788;28;46437;-73
2021/07/02 06:32:35;;;;;;;;;;;;;;;;;;2081313;28;46829;-74
2021/07/02 06:33:36;;;;;;;;;;;;;;;;;;2073262;28;46543;-74
2021/07/02 06:34:38;;;;;;;;;;;;;;;;;;2073766;28;45193;-73
2021/07/02 06:35:39;;;;;;;;;;;;;;;;;;2081255;28;45279;-73
2021/07/02 06:36:41;;;;;;;;;;;;;;;;;;2073227;28;45614;-73
2021/07/02 06:37:48;;;;;;;;;;;;;;;;;;2073153;28;47182;-73
2021/07/02 06:38:50;;;;;;;;;;;;;;;;;;2081582;28;44473;-73
2021/07/02 06:39:52;;;;;;;;;;;;;;;;;;2081416;28;45413;-73
2021/07/02 06:40:53;;;;;;;;;;;;;;;;;;2081526;28;45644;-73
2021/07/02 06:41:54;;;;;;;;;;;;;;;;;;2081314;28;45391;-73
2021/07/02 06:42:56;;;;;;;;;;;;;;;;;;2081014;28;43855;-73
2021/07/02 06:43:57;;;;;;;;;;;;;;;;;;2072877;28;46986;-73
2021/07/02 06:44:58;;;;;;;;;;;;;;;;;;2073065;28;45704;-73
2021/07/02 06:46:00;;;;;;;;;;;;;;;;;;2081023;28;45750;-73
2021/07/02 06:47:02;;;;;;;;;;;;;;;;;;2081871;28;45714;-72
2021/07/02 06:48:04;;;;;;;;;;;;;;;;;;2081239;28;44473;-73
2021/07/02 06:49:06;;;;;;;;;;;;;;;;;;2073228;28;45622;-73
2021/07/02 06:50:07;;;;;;;;;;;;;;;;;;2081122;28;45801;-73
2021/07/02 06:51:09;;;;;;;;;;;;;;;;;;2081098;28;46611;-72
2021/07/02 06:52:10;;;;;;;;;;;;;;;;;;2080976;28;43375;-72
2021/07/02 06:53:13;;;;;;;;;;;;;;;;;;2081100;28;45461;-72
2021/07/02 06:54:14;;;;;;;;;;;;;;;;;;2081069;28;45327;-73
2021/07/02 06:55:16;;;;;;;;;;;;;;;;;;2081240;28;42884;-72
2021/07/02 06:56:17;;;;;;;;;;;;;;;;;;2088696;28;45760;-72
2021/07/02 06:57:19;;;;;;;;;;;;;;;;;;2081289;28;39585;-72
2021/07/02 06:58:21;;;;;;;;;;;;;;;;;;2080881;28;46951;-72
2021/07/02 06:59:22;;;;;;;;;;;;;;;;;;2081742;28;45906;-72
2021/07/02 07:00:24;;;;;;;;;;;;;;;;;;2081508;28;46315;-73
2021/07/02 07:01:25;;;;;;;;;;;;;;;;;;2081573;28;47158;-73
2021/07/02 07:02:27;;;;;;;;;;;;;;;;;;2081435;28;45886;-73